Waarschuwingen Drenthe

Code Groen. Er zijn momenteel geen waarschuwingen van kracht.

Bron: KNMI



Webcam op het Zuiden Meer informatie Webcam op het Zuiden


Webcam op het Westen Meer informatie Webcam op het Westen


Onweer radar Meer informatie blitzortung!


Regen radar  rain snow radar


Lokaal brand risico:
CBI


Regionaal brand risico: Meer informatie


Lokaal brand risico:
Gebaseerd op actuele waarde
CBI


Bezoek ook deze websites:

Template documentation
and downloads

And another site



METAR rapporten vliegvelden

   
ETWM - Meppen, Germany
Afstand tot: O 29 km
Gewijzigd: 28-05-2024 05:20
  
  
   Wind: WZW 3.7 km/h
Wind: WZW 3.7 km/h
Temperatuur: 11°C
Dauwpunt: 11°C
Vochtigheid: 100%
Barometer: 1016 hPa
ETWM 280320Z AUTO 24002KT //// // ////// 11/11 Q1016 ///
EHGG - Groningen/Eelde, Netherlands
Afstand tot: NNW 47 km
Gewijzigd: 28-05-2024 05:55
Licht bewolkt  
Licht bewolkt  
   Wind: ZZW 7.4 km/h
Wind: ZZW 7.4 km/h
Temperatuur: 11°C
Dauwpunt: 10°C
Vochtigheid: 94%
Barometer: 1016 hPa
Bewolking: Licht bewolkt
Zicht: meer dan 10 km
Bewolking: Licht bewolkt 2400 ft
EHGG 280355Z AUTO 20004KT 9999 FEW024 11/10 Q1016 NOSIG
EDDG - Muenster/Osnabru, Germany
Afstand tot: ZO 87 km
Gewijzigd: 28-05-2024 06:20
Wat regen mogelijk, Motregen, Grotendeels bewolkt  
Wat regen mogelijk, Motregen, Grotendeels bewolkt  
   Wind: Westen 7.4 km/h
Wind: Westen 7.4 km/h
Temperatuur: 12°C
Dauwpunt: 11°C
Vochtigheid: 94%
Barometer: 1017 hPa
Bewolking: Grotendeels bewolkt
Zicht: 9 km
Bewolking: Gedeeltelijk bewolkt 700 ft,
Grotendeels bewolkt 2900 ft,
Grotendeels bewolkt 4400 ft
EDDG 280420Z AUTO 26004KT 9000 -RADZ SCT007 BKN029 BKN044 12/11 Q1017 RERA TEMPO BKN007
EHLW - Leeuwarden Rnlaf, Netherlands
Afstand tot: NW 93 km
Gewijzigd: 28-05-2024 05:55
Helder  
Helder  
   Wind: Zuiden 11.1 km/h
Wind: Zuiden 11.1 km/h
Temperatuur: 11°C
Dauwpunt: 10°C
Vochtigheid: 94%
Barometer: 1015 hPa
Bewolking: Helder
Zicht: meer dan 10 km
Bewolking: Helder
EHLW 280355Z AUTO 17006KT 9999 NCD 11/10 Q1015 BLU
ETNT - Wittmundhaven(Ga, Germany
Afstand tot: NNO 100 km
Gewijzigd: 28-05-2024 05:20
  
  
   Wind: ZW 9.3 km/h
Wind: ZW 9.3 km/h
Temperatuur: 11°C
Dauwpunt: 11°C
Vochtigheid: 100%
Barometer: 1015 hPa
ETNT 280320Z AUTO 23005KT //// // ////// 11/11 Q1015 ///
ETND - Diepholz (ger-Af, Germany
Afstand tot: O 104 km
Gewijzigd: 27-05-2024 15:20
Verouderd
Grotendeels bewolkt  
Grotendeels bewolkt  
   Wind: Westen 14.8 km/h
Wind: Westen 14.8 km/h
Temperatuur: 21°C
Dauwpunt: 12°C
Vochtigheid: 57%
Barometer: 1016 hPa
Bewolking: Grotendeels bewolkt
Zicht: meer dan 10 km
Bewolking: Grotendeels bewolkt 4000 ft,
Gedeeltelijk bewolkt 9000 ft
ETND 271320Z 28008KT 9999 BKN040TCU SCT090 21/12 Q1016 BLU
ETNT - Wittmundhaven(Ga, Germany
Afstand tot: NNO 102 km
Gewijzigd: 28-05-2024 05:20
  
  
   Wind: ZW 9.3 km/h
Wind: ZW 9.3 km/h
Temperatuur: 11°C
Dauwpunt: 11°C
Vochtigheid: 100%
Barometer: 1015 hPa
ETNT 280320Z AUTO 23005KT //// // ////// 11/11 Q1015 ///
EHDL - Deelen Rnlafb, Netherlands
Afstand tot: ZW 103 km
Gewijzigd: 28-05-2024 05:55
Nevel, Bewolking  
Nevel, Bewolking  
   Wind: ZZW 11.1 km/h
Wind: ZZW 11.1 km/h
Temperatuur: 10°C
Voelt als: 8°C
Dauwpunt: 9°C
Vochtigheid: 94%
Barometer: 1017 hPa
Bewolking: Bewolking
Zicht: 6 km
Bewolking: Bewolking 16000 ft
EHDL 280355Z AUTO 20006KT 120V210 6000 BR OVC160 10/09 Q1017 WHT
EHMA - Awg-1 Sea, Netherlands
Afstand tot: NW 105 km
Gewijzigd: 28-05-2024 05:55
Gedeeltelijk bewolkt  
Gedeeltelijk bewolkt  
   Wind: ZZW 24.1 km/h
Wind: ZZW 24.1 km/h
Temperatuur: 13°C
Dauwpunt: 10°C
Vochtigheid: 82%
Barometer: 1015 hPa
Bewolking: Gedeeltelijk bewolkt
Zicht: meer dan 10 km
Bewolking: Gedeeltelijk bewolkt
EHMA 280355Z AUTO 21013KT 170V280 9999 NSC 13/10 Q1015
EDDW - Bremen, Germany
Afstand tot: ONO 135 km
Gewijzigd: 28-05-2024 06:20
Grotendeels bewolkt  
Grotendeels bewolkt  
   Wind: Westen 13 km/h
Wind: Westen 13 km/h
Temperatuur: 11°C
Dauwpunt: 10°C
Vochtigheid: 94%
Barometer: 1016 hPa
Bewolking: Grotendeels bewolkt
Zicht: meer dan 10 km
Bewolking: Gedeeltelijk bewolkt 1000 ft,
Grotendeels bewolkt 1600 ft,
Grotendeels bewolkt 3600 ft
EDDW 280420Z AUTO 26007KT 9999 SCT010 BKN016 BKN036 11/10 Q1016 TEMPO BKN008
EHVL - Vlieland Island, Netherlands
Afstand tot: WNW 138 km
Gewijzigd: 28-05-2024 06:15
Bewolking  
Bewolking  
   Wind: ZW 22.2 km/h
Wind: ZW 22.2 km/h
Temperatuur: 12°C
Dauwpunt: 11°C
Vochtigheid: 94%
Barometer: 1015 hPa
Bewolking: Bewolking
Zicht: meer dan 10 km
Bewolking: Grotendeels bewolkt 1200 ft,
Grotendeels bewolkt 1500 ft,
Bewolking 12000 ft
EHVL 280415Z AUTO 23012KT 9999 BKN012 BKN015 OVC120 12/11 Q1015 BLACKGRN
EDLV - Niederrhein, Germany
Afstand tot: ZZW 139 km
Gewijzigd: 28-05-2024 06:20
Helder  
Helder  
   Wind: ZZW 11.1 km/h
Wind: ZZW 11.1 km/h
Temperatuur: 10°C
Voelt als: 8°C
Dauwpunt: 9°C
Vochtigheid: 94%
Barometer: 1018 hPa
Zicht: meer dan 10 km
Bewolking: Helder
EDLV 280420Z 21006KT CAVOK 10/09 Q1018
EHKD - De Kooy (navy), Netherlands
Afstand tot: W 144 km
Gewijzigd: 28-05-2024 06:25
Bewolking  
Bewolking  
   Wind: ZW 14.8 km/h
Wind: ZW 14.8 km/h
Temperatuur: 13°C
Dauwpunt: 11°C
Vochtigheid: 88%
Barometer: 1015 hPa
Bewolking: Bewolking
Zicht: meer dan 10 km
Bewolking: Gedeeltelijk bewolkt 1400 ft,
Grotendeels bewolkt 1600 ft,
Bewolking 16000 ft
EHKD 280425Z AUTO 23008KT 200V260 9999 SCT014 BKN016 OVC160 13/11 Q1015 GRN
EDLW - Dortmund/Wickede, Germany
Afstand tot: ZZO 150 km
Gewijzigd: 28-05-2024 06:20
Gedeeltelijk bewolkt  
Gedeeltelijk bewolkt  
   Wind: ZW 9.3 km/h
Wind: ZW 9.3 km/h
Temperatuur: 11°C
Dauwpunt: 9°C
Vochtigheid: 88%
Barometer: 1018 hPa
Bewolking: Gedeeltelijk bewolkt
Zicht: meer dan 10 km
Bewolking: Licht bewolkt 1000 ft,
Gedeeltelijk bewolkt 2300 ft
EDLW 280420Z 23005KT 9999 FEW010 SCT023 11/09 Q1018
EHVK - Volkel Rnlafb, Netherlands
Afstand tot: ZZW 149 km
Gewijzigd: 28-05-2024 05:55
Helder  
Helder  
   Wind: ZZW 5.6 km/h
Wind: ZZW 5.6 km/h
Temperatuur: 8°C
Voelt als: 7°C
Dauwpunt: 8°C
Vochtigheid: 100%
Barometer: 1017 hPa
Bewolking: Helder
Zicht: meer dan 10 km
Bewolking: Helder
EHVK 280355Z AUTO 20003KT 170V240 9999 NCD 08/08 Q1017 BLU
EDLW - Dortmund/Wickede, Germany
Afstand tot: ZZO 150 km
Gewijzigd: 28-05-2024 06:20
Gedeeltelijk bewolkt  
Gedeeltelijk bewolkt  
   Wind: ZW 9.3 km/h
Wind: ZW 9.3 km/h
Temperatuur: 11°C
Dauwpunt: 9°C
Vochtigheid: 88%
Barometer: 1018 hPa
Bewolking: Gedeeltelijk bewolkt
Zicht: meer dan 10 km
Bewolking: Licht bewolkt 1000 ft,
Gedeeltelijk bewolkt 2300 ft
EDLW 280420Z 23005KT 9999 FEW010 SCT023 11/09 Q1018
EHMG - L9-Ff-1 Sea, Netherlands
Afstand tot: NW 155 km
Gewijzigd: 28-05-2024 05:55
Licht bewolkt  
Licht bewolkt  
   Wind: ZZW 25.9 km/h
Wind: ZZW 25.9 km/h
Temperatuur: 14°C
Dauwpunt: 11°C
Vochtigheid: 82%
Barometer: 1016 hPa
Bewolking: Licht bewolkt
Zicht: meer dan 10 km
Bewolking: Licht bewolkt 900 ft
EHMG 280355Z AUTO 21014KT 9999 FEW009 14/11 Q1016
ETHB - Buckeburg(Ger-Ar, Germany
Afstand tot: OZO 161 km
Gewijzigd: 28-05-2024 06:20
Grotendeels bewolkt  
Grotendeels bewolkt  
   Wind: Westen 11.1 km/h
Wind: Westen 11.1 km/h
Temperatuur: 12°C
Dauwpunt: 10°C
Vochtigheid: 88%
Barometer: 1016 hPa
Bewolking: Grotendeels bewolkt
Zicht: meer dan 10 km
Bewolking: Licht bewolkt 700 ft,
Grotendeels bewolkt 1000 ft,
Grotendeels bewolkt 7000 ft
ETHB 280420Z 26006KT 9999 FEW007 BKN010 BKN070 12/10 Q1016 GRN BLU TEMPO GRN
ETMN - Nordholz (ger-Na, Germany
Afstand tot: NO 164 km
Gewijzigd: 28-05-2024 06:20
Lichte (mot)regen, Regen, Nevel, Grotendeels bewolkt  
Lichte (mot)regen, Regen, Nevel, Grotendeels bewolkt  
   Wind: Noorden 27.8 km/h
Wind: Noorden 27.8 km/h
Temperatuur: 10°C
Voelt als: 7°C
Dauwpunt: 9°C
Vochtigheid: 94%
Barometer: 1015 hPa
Bewolking: Grotendeels bewolkt
Zicht: 4 km
Bewolking: Gedeeltelijk bewolkt 1500 ft,
Grotendeels bewolkt 3500 ft
ETMN 280420Z 35015KT 3800 -DZRA BR SCT015 BKN035 10/09 Q1015 GR
EDDL - Duesseldorf, Germany
Afstand tot: Z 165 km
Gewijzigd: 28-05-2024 06:20
Helder  
Helder  
   Wind: ZW 14.8 km/h
Wind: ZW 14.8 km/h
Temperatuur: 10°C
Voelt als: 8°C
Dauwpunt: 9°C
Vochtigheid: 94%
Barometer: 1018 hPa
Zicht: meer dan 10 km
Bewolking: Helder
EDDL 280420Z AUTO 22008KT CAVOK 10/09 Q1018 NOSIG
EDLN - Monchengladbach, Germany
Afstand tot: Z 174 km
Gewijzigd: 28-05-2024 06:20
Helder  
Helder  
   Wind: ZZW 5.6 km/h
Wind: ZZW 5.6 km/h
Temperatuur: 10°C
Voelt als: 9°C
Dauwpunt: 9°C
Vochtigheid: 94%
Barometer: 1018 hPa
Bewolking: Helder
Zicht: meer dan 10 km
Bewolking: Helder
EDLN 280420Z AUTO 20003KT 150V260 9999 // NCD 10/09 Q1018 RESHRA

Script ontwikkeld door  Saratoga-weather.org Aangepast voor de template door  Weerstation Leuven

U vindt ons ook hier:

Het Weer Aktueel

European Weather Network

Weather Underground

Wetterpage 24

Apparatuur in gebruik:

Weerstation
Davis VP2

Weerprogramma
Meteohub

Hardware
RaspberryPI, Wireless Weather Envoy, MeteoStick, TP-Link MR3020

Leverancier
Weerhuisje.nl weerstations

Davis VP2

Meteohub

RaspberryPI, Wireless Weather Envoy, MeteoStick, TP-Link MR3020

Weerhuisje.nl weerstations